createdAt,value
2022-12-29T00:02:17.579Z,9.00
2022-12-29T00:04:45.185Z,9.00
2022-12-29T00:07:13.047Z,9.00
2022-12-29T00:09:40.718Z,8.90
2022-12-29T00:12:08.312Z,8.90
2022-12-29T00:14:54.598Z,8.90
2022-12-29T00:17:22.205Z,8.90
2022-12-29T00:20:08.353Z,8.80
2022-12-29T00:22:54.349Z,8.80
2022-12-29T00:25:40.408Z,8.80
2022-12-29T00:28:28.489Z,8.80
2022-12-29T00:31:19.497Z,8.90
2022-12-29T00:34:05.446Z,8.90
2022-12-29T00:36:39.198Z,8.80
2022-12-29T00:39:29.639Z,8.90
2022-12-29T00:42:16.241Z,8.80
2022-12-29T00:44:44.944Z,8.80
2022-12-29T00:47:12.585Z,8.80
2022-12-29T00:49:40.206Z,8.80
2022-12-29T00:52:13.629Z,8.70
2022-12-29T00:54:42.714Z,8.70
2022-12-29T00:57:11.137Z,8.80
2022-12-29T00:59:40.283Z,8.70
2022-12-29T01:02:08.770Z,8.70
2022-12-29T01:04:36.613Z,8.70
2022-12-29T01:07:04.575Z,8.70
2022-12-29T01:09:51.740Z,8.70
2022-12-29T01:12:39.552Z,8.60
2022-12-29T01:15:09.763Z,8.60
2022-12-29T01:17:37.417Z,8.60
2022-12-29T01:20:06.000Z,8.60
2022-12-29T01:22:33.688Z,8.70
2022-12-29T01:25:01.556Z,8.60
2022-12-29T01:27:29.230Z,8.60
2022-12-29T01:29:56.760Z,8.60
2022-12-29T01:32:24.394Z,8.60
2022-12-29T01:34:51.896Z,8.60
2022-12-29T01:37:19.588Z,8.60
2022-12-29T01:39:47.456Z,8.60
2022-12-29T01:42:20.068Z,8.50
2022-12-29T01:44:49.837Z,8.40
2022-12-29T01:47:31.683Z,8.30
2022-12-29T01:50:14.836Z,8.30
2022-12-29T01:52:48.297Z,8.30
2022-12-29T01:55:16.695Z,8.20
2022-12-29T01:57:50.613Z,8.20
2022-12-29T02:00:18.283Z,8.20
2022-12-29T02:02:53.118Z,8.20
2022-12-29T02:05:54.763Z,8.20
2022-12-29T02:08:25.791Z,8.20
2022-12-29T02:10:54.562Z,8.10
2022-12-29T02:13:26.270Z,8.00
2022-12-29T02:15:59.977Z,8.00
2022-12-29T02:18:58.404Z,7.70
2022-12-29T02:21:51.072Z,7.70
2022-12-29T02:24:34.072Z,7.40
2022-12-29T02:27:13.713Z,7.20
2022-12-29T02:29:47.830Z,7.10
2022-12-29T02:32:15.395Z,7.00
2022-12-29T02:34:55.536Z,7.00
2022-12-29T02:37:37.035Z,6.90
2022-12-29T02:40:24.306Z,6.80
2022-12-29T02:43:10.387Z,6.80
2022-12-29T02:45:59.543Z,6.70
2022-12-29T02:48:41.234Z,6.60
2022-12-29T02:51:16.133Z,6.60
2022-12-29T02:54:04.244Z,6.60
2022-12-29T02:56:32.145Z,6.60
2022-12-29T02:58:59.711Z,6.50
2022-12-29T03:01:36.195Z,6.40
2022-12-29T03:04:41.764Z,6.30
2022-12-29T03:07:33.404Z,6.30
2022-12-29T03:10:19.380Z,6.20
2022-12-29T03:13:41.161Z,6.20
2022-12-29T03:16:31.043Z,6.20
2022-12-29T03:19:10.981Z,6.20
2022-12-29T03:21:59.902Z,6.20
2022-12-29T03:24:39.491Z,6.20
2022-12-29T03:27:10.433Z,6.20
2022-12-29T03:29:47.643Z,6.20
2022-12-29T03:32:18.304Z,6.30
2022-12-29T03:34:47.631Z,6.20
2022-12-29T03:37:21.701Z,6.20
2022-12-29T03:39:49.553Z,6.30
2022-12-29T03:42:24.840Z,6.20
2022-12-29T03:44:57.171Z,6.20
2022-12-29T03:47:26.111Z,6.20
2022-12-29T03:49:55.399Z,6.20
2022-12-29T03:52:23.191Z,6.20
2022-12-29T03:54:53.250Z,6.20
2022-12-29T03:57:21.004Z,6.20
2022-12-29T04:00:01.983Z,6.20
2022-12-29T04:02:32.011Z,5.70
2022-12-29T04:04:59.711Z,6.20
2022-12-29T04:07:27.313Z,6.20
2022-12-29T04:09:56.344Z,6.20
2022-12-29T04:12:27.314Z,6.20
2022-12-29T04:14:54.984Z,6.20
2022-12-29T04:17:23.500Z,6.20
2022-12-29T04:20:13.697Z,6.10
2022-12-29T04:22:42.018Z,6.10
2022-12-29T04:25:10.233Z,6.00
2022-12-29T04:27:38.424Z,6.00
2022-12-29T04:30:26.307Z,5.90
2022-12-29T04:33:13.539Z,5.90
2022-12-29T04:35:44.514Z,5.90
2022-12-29T04:38:12.887Z,5.90
2022-12-29T04:40:43.151Z,5.90
2022-12-29T04:43:12.355Z,5.80
2022-12-29T04:45:58.214Z,5.80
2022-12-29T04:48:30.190Z,5.70
2022-12-29T04:51:21.252Z,5.70
2022-12-29T04:53:49.203Z,5.60
2022-12-29T04:56:16.707Z,5.50
2022-12-29T04:58:46.157Z,5.50
2022-12-29T05:01:15.364Z,5.50
2022-12-29T05:03:43.041Z,5.40
2022-12-29T05:06:11.665Z,5.40
2022-12-29T05:08:39.369Z,5.40
2022-12-29T05:11:07.172Z,5.30
2022-12-29T05:13:35.111Z,5.30
2022-12-29T05:16:03.922Z,5.30
2022-12-29T05:18:31.739Z,5.30
2022-12-29T05:23:29.226Z,5.30
2022-12-29T05:26:01.411Z,5.30
2022-12-29T05:28:47.232Z,5.30
2022-12-29T05:31:19.510Z,5.30
2022-12-29T05:33:47.623Z,5.30
2022-12-29T05:36:15.898Z,5.30
2022-12-29T05:38:48.149Z,5.30
2022-12-29T05:41:16.077Z,5.40
2022-12-29T05:44:05.222Z,5.40
2022-12-29T05:46:33.061Z,5.50
2022-12-29T05:49:12.787Z,5.50
2022-12-29T05:52:18.861Z,5.50
2022-12-29T05:54:46.621Z,5.50
2022-12-29T05:57:18.216Z,5.50
2022-12-29T05:59:51.811Z,5.50
2022-12-29T06:02:19.648Z,5.40
2022-12-29T06:04:47.384Z,5.40
2022-12-29T06:07:15.300Z,5.40
2022-12-29T06:09:46.037Z,5.40
2022-12-29T06:12:14.626Z,5.30
2022-12-29T06:14:49.466Z,5.30
2022-12-29T06:17:17.634Z,5.30
2022-12-29T06:19:45.490Z,5.30
2022-12-29T06:22:13.355Z,5.30
2022-12-29T06:24:44.287Z,5.30
2022-12-29T06:27:12.294Z,5.30
2022-12-29T06:29:41.789Z,5.30
2022-12-29T06:32:10.008Z,5.20
2022-12-29T06:34:41.026Z,5.20
2022-12-29T06:37:08.723Z,5.20
2022-12-29T06:39:36.303Z,5.20
2022-12-29T06:42:11.336Z,5.20
2022-12-29T06:44:59.924Z,5.20
2022-12-29T06:47:27.693Z,5.20
2022-12-29T06:49:55.138Z,5.20
2022-12-29T06:52:25.076Z,5.30
2022-12-29T06:54:52.812Z,5.30
2022-12-29T06:57:20.359Z,5.40
2022-12-29T06:59:48.540Z,5.50
2022-12-29T07:02:19.274Z,5.50
2022-12-29T07:04:47.064Z,5.50
2022-12-29T07:07:14.671Z,5.60
2022-12-29T07:09:42.386Z,5.60
2022-12-29T07:12:09.960Z,5.60
2022-12-29T07:14:42.972Z,5.60
2022-12-29T07:17:11.206Z,5.60
2022-12-29T07:19:38.949Z,5.60
2022-12-29T07:22:06.823Z,5.70
2022-12-29T07:24:34.523Z,5.70
2022-12-29T07:27:02.236Z,5.80
2022-12-29T07:29:29.792Z,5.80
2022-12-29T07:31:57.444Z,5.90
2022-12-29T07:34:25.174Z,5.90
2022-12-29T07:36:52.776Z,5.90
2022-12-29T07:39:20.345Z,5.90
2022-12-29T07:41:48.104Z,5.90
2022-12-29T07:44:19.907Z,5.80
2022-12-29T07:47:20.052Z,5.80
2022-12-29T07:49:48.323Z,5.80
2022-12-29T07:52:16.063Z,5.80
2022-12-29T07:54:43.879Z,5.80
2022-12-29T07:57:11.462Z,5.90
2022-12-29T07:59:39.137Z,5.90
2022-12-29T08:02:07.082Z,5.90
2022-12-29T08:04:34.841Z,5.90
2022-12-29T08:07:02.387Z,5.90
2022-12-29T08:09:30.101Z,5.90
2022-12-29T08:11:57.637Z,5.80
2022-12-29T08:14:25.251Z,5.80
2022-12-29T08:16:52.816Z,5.80
2022-12-29T08:19:20.489Z,5.80
2022-12-29T08:21:48.219Z,5.80
2022-12-29T08:24:15.897Z,5.80
2022-12-29T08:26:43.455Z,5.80
2022-12-29T08:29:11.093Z,5.80
2022-12-29T08:31:39.093Z,5.80
2022-12-29T08:34:06.906Z,5.70
2022-12-29T08:36:34.489Z,5.70
2022-12-29T08:39:02.349Z,5.70
2022-12-29T08:41:29.975Z,5.60
2022-12-29T08:43:57.692Z,5.50
2022-12-29T08:46:25.373Z,5.50
2022-12-29T08:48:53.885Z,5.50
2022-12-29T08:51:24.797Z,5.50
2022-12-29T08:53:53.236Z,5.50
2022-12-29T08:56:20.877Z,5.40
2022-12-29T08:58:53.455Z,5.40
2022-12-29T09:01:23.138Z,5.40
2022-12-29T09:04:14.341Z,5.40
2022-12-29T09:06:40.637Z,5.30
2022-12-29T09:09:08.581Z,5.30
2022-12-29T09:11:36.561Z,5.30
2022-12-29T09:14:05.083Z,5.30
2022-12-29T09:16:33.197Z,5.30
2022-12-29T09:19:02.393Z,5.30
2022-12-29T09:21:30.348Z,5.40
2022-12-29T09:23:57.938Z,5.40
2022-12-29T09:26:25.585Z,5.40
2022-12-29T09:28:53.189Z,5.40
2022-12-29T09:31:21.093Z,5.40
2022-12-29T09:33:48.827Z,5.50
2022-12-29T09:36:16.394Z,5.50
2022-12-29T09:38:43.944Z,5.50
2022-12-29T09:41:25.716Z,5.60
2022-12-29T09:44:16.134Z,5.60
2022-12-29T09:46:50.910Z,5.60
2022-12-29T09:49:31.024Z,5.70
2022-12-29T09:52:05.963Z,5.70
2022-12-29T09:55:12.031Z,5.80
2022-12-29T09:57:59.498Z,5.80
2022-12-29T10:00:55.701Z,5.90
2022-12-29T10:03:28.945Z,6.00
2022-12-29T10:06:15.132Z,6.00
2022-12-29T10:09:09.357Z,6.00
2022-12-29T10:12:18.226Z,6.00
2022-12-29T10:15:09.899Z,6.00
2022-12-29T10:17:40.535Z,6.00
2022-12-29T10:20:16.882Z,6.00
2022-12-29T10:23:05.823Z,6.10
2022-12-29T10:25:39.423Z,6.10
2022-12-29T10:28:18.791Z,6.10
2022-12-29T10:30:49.641Z,6.10
2022-12-29T10:33:22.802Z,6.20
2022-12-29T10:35:51.980Z,6.20
2022-12-29T10:38:41.388Z,6.20
2022-12-29T10:41:11.976Z,6.30
2022-12-29T10:43:47.452Z,6.30
2022-12-29T10:46:23.076Z,6.30
2022-12-29T10:48:50.865Z,6.40
2022-12-29T10:51:28.881Z,6.40
2022-12-29T10:54:24.852Z,6.40
2022-12-29T10:57:00.761Z,6.50
2022-12-29T10:59:32.369Z,6.60
2022-12-29T11:02:12.139Z,6.80
2022-12-29T11:05:04.125Z,6.90
2022-12-29T11:07:32.961Z,7.00
2022-12-29T11:10:31.563Z,7.00
2022-12-29T11:13:15.855Z,7.10
2022-12-29T11:15:51.445Z,7.10
2022-12-29T11:18:23.750Z,7.20
2022-12-29T11:20:55.335Z,7.20
2022-12-29T11:23:33.558Z,7.20
2022-12-29T11:26:27.602Z,7.20
2022-12-29T11:29:22.494Z,7.20
2022-12-29T11:31:56.154Z,7.20
2022-12-29T11:34:31.530Z,7.10
2022-12-29T11:37:16.085Z,7.20
2022-12-29T11:40:09.186Z,7.30
2022-12-29T11:42:38.466Z,7.50
2022-12-29T11:45:24.463Z,7.60
2022-12-29T11:48:02.137Z,7.50
2022-12-29T11:50:33.539Z,7.50
2022-12-29T11:53:06.746Z,7.50
2022-12-29T11:55:35.281Z,7.50
2022-12-29T11:58:05.257Z,7.40
2022-12-29T12:00:41.338Z,7.40
2022-12-29T12:03:18.264Z,7.40
2022-12-29T12:05:55.042Z,7.40
2022-12-29T12:08:56.263Z,7.30
2022-12-29T12:11:37.308Z,7.40
2022-12-29T12:14:27.738Z,7.30
2022-12-29T12:17:30.282Z,7.30
2022-12-29T12:20:23.140Z,7.50
2022-12-29T12:23:09.534Z,7.60
2022-12-29T12:25:48.977Z,7.60
2022-12-29T12:28:36.587Z,7.60
2022-12-29T12:31:16.221Z,7.70
2022-12-29T12:33:49.077Z,8.20
2022-12-29T12:36:36.134Z,8.90
2022-12-29T12:39:28.243Z,9.50
2022-12-29T12:42:10.815Z,10.40
2022-12-29T12:44:57.217Z,10.50
2022-12-29T12:47:33.859Z,10.40
2022-12-29T12:50:13.784Z,10.00
2022-12-29T12:52:59.590Z,9.70
2022-12-29T12:56:04.658Z,9.40
2022-12-29T12:58:50.740Z,9.00
2022-12-29T13:01:41.858Z,8.90
2022-12-29T13:04:25.015Z,8.90
2022-12-29T13:07:04.312Z,9.00
2022-12-29T13:09:58.171Z,9.20
2022-12-29T13:12:47.059Z,9.70
2022-12-29T13:15:43.936Z,10.00
2022-12-29T13:18:22.039Z,9.80
2022-12-29T13:21:01.702Z,9.50
2022-12-29T13:23:56.442Z,9.50
2022-12-29T13:26:47.548Z,9.20
2022-12-29T13:29:28.870Z,8.90
2022-12-29T13:32:13.633Z,8.70
2022-12-29T13:34:57.997Z,8.70
2022-12-29T13:37:30.342Z,8.70
2022-12-29T13:40:02.666Z,8.70
2022-12-29T13:42:31.093Z,8.70
2022-12-29T13:45:01.045Z,8.60
2022-12-29T13:47:31.562Z,8.70
2022-12-29T13:50:02.314Z,8.60
2022-12-29T13:52:35.649Z,8.60
2022-12-29T13:55:28.044Z,8.40
2022-12-29T13:58:16.136Z,8.30
2022-12-29T14:00:58.738Z,8.30
2022-12-29T14:03:44.920Z,8.20
2022-12-29T14:06:17.344Z,8.10
2022-12-29T14:08:45.977Z,8.10
2022-12-29T14:11:17.068Z,8.10
2022-12-29T14:13:47.468Z,8.10
2022-12-29T14:16:33.555Z,8.00
2022-12-29T14:19:15.065Z,8.00
2022-12-29T14:21:51.050Z,8.00
2022-12-29T14:24:34.046Z,8.10
2022-12-29T14:27:22.405Z,8.10
2022-12-29T14:29:52.631Z,8.10
2022-12-29T14:32:26.584Z,8.10
2022-12-29T14:34:58.930Z,8.10
2022-12-29T14:37:32.280Z,8.00
2022-12-29T14:40:27.484Z,8.00
2022-12-29T14:42:57.453Z,8.00
2022-12-29T14:45:27.836Z,8.00
2022-12-29T14:47:56.324Z,7.90
2022-12-29T14:50:44.257Z,7.90
2022-12-29T14:53:44.195Z,7.90
2022-12-29T14:56:13.318Z,7.90
2022-12-29T14:59:01.839Z,7.90
2022-12-29T15:01:47.658Z,7.90
2022-12-29T15:04:27.865Z,7.80
2022-12-29T15:06:55.929Z,7.80
2022-12-29T15:09:37.275Z,7.80
2022-12-29T15:12:29.100Z,7.60
2022-12-29T15:14:59.698Z,7.70
2022-12-29T15:17:32.910Z,7.50
2022-12-29T15:20:14.804Z,7.40
2022-12-29T15:22:56.219Z,7.30
2022-12-29T15:25:24.833Z,7.30
2022-12-29T15:28:01.976Z,7.10
2022-12-29T15:30:30.163Z,7.00
2022-12-29T15:32:58.161Z,7.00
2022-12-29T15:35:37.361Z,6.90
2022-12-29T15:38:17.825Z,6.80
2022-12-29T15:40:46.966Z,6.70
2022-12-29T15:43:20.175Z,6.60
2022-12-29T15:45:47.920Z,6.60
2022-12-29T15:48:20.491Z,6.60
2022-12-29T15:50:48.654Z,6.50
2022-12-29T15:53:29.391Z,6.50
2022-12-29T15:56:06.801Z,6.40
2022-12-29T15:58:45.679Z,6.40
2022-12-29T16:01:25.912Z,6.40
2022-12-29T16:03:54.384Z,6.40
2022-12-29T16:06:24.978Z,6.30
2022-12-29T16:09:03.956Z,6.30
2022-12-29T16:11:44.733Z,6.30
2022-12-29T16:14:22.550Z,6.20
2022-12-29T16:16:51.549Z,6.20
2022-12-29T16:19:33.309Z,6.10
2022-12-29T16:22:02.733Z,6.10
2022-12-29T16:24:34.130Z,6.00
2022-12-29T16:27:23.635Z,6.00
2022-12-29T16:29:55.839Z,5.90
2022-12-29T16:32:27.787Z,5.90
2022-12-29T16:35:20.212Z,5.80
2022-12-29T16:37:48.985Z,5.70
2022-12-29T16:40:19.340Z,5.70
2022-12-29T16:42:52.309Z,5.60
2022-12-29T16:45:20.216Z,5.60
2022-12-29T16:48:06.266Z,5.60
2022-12-29T16:50:36.695Z,5.60
2022-12-29T16:53:05.416Z,5.50
2022-12-29T16:55:33.524Z,5.50
2022-12-29T16:58:01.656Z,5.50
2022-12-29T17:00:36.607Z,5.60
2022-12-29T17:03:04.706Z,5.50
2022-12-29T17:05:32.333Z,5.40
2022-12-29T17:08:02.132Z,5.40
2022-12-29T17:10:48.412Z,5.40
2022-12-29T17:13:16.025Z,5.30
2022-12-29T17:15:43.653Z,5.30
2022-12-29T17:18:14.160Z,5.30
2022-12-29T17:20:42.289Z,5.30
2022-12-29T17:23:22.859Z,5.20
2022-12-29T17:25:55.100Z,5.20
2022-12-29T17:28:25.422Z,5.20
2022-12-29T17:30:55.098Z,5.20
2022-12-29T17:33:22.939Z,5.20
2022-12-29T17:35:55.913Z,5.20
2022-12-29T17:38:28.736Z,5.10
2022-12-29T17:40:56.987Z,5.10
2022-12-29T17:43:24.995Z,5.10
2022-12-29T17:45:58.601Z,5.10
2022-12-29T17:48:26.986Z,5.10
2022-12-29T17:50:57.293Z,5.10
2022-12-29T17:53:28.355Z,5.00
2022-12-29T17:55:56.629Z,5.00
2022-12-29T17:58:26.336Z,5.00
2022-12-29T18:00:56.335Z,5.10
2022-12-29T18:03:33.044Z,5.00
2022-12-29T18:06:02.011Z,5.00
2022-12-29T18:08:30.449Z,5.00
2022-12-29T18:10:59.021Z,5.00
2022-12-29T18:13:40.476Z,5.00
2022-12-29T18:16:12.320Z,5.00
2022-12-29T18:18:40.023Z,5.00
2022-12-29T18:21:14.495Z,4.90
2022-12-29T18:23:42.217Z,5.00
2022-12-29T18:26:22.296Z,4.90
2022-12-29T18:28:56.370Z,4.90
2022-12-29T18:31:26.960Z,4.90
2022-12-29T18:33:56.845Z,4.90
2022-12-29T18:36:25.263Z,4.90
2022-12-29T18:38:54.703Z,4.90
2022-12-29T18:41:26.208Z,4.80
2022-12-29T18:43:53.906Z,4.80
2022-12-29T18:46:23.475Z,4.80
2022-12-29T18:48:52.005Z,4.70
2022-12-29T18:51:22.474Z,4.40
2022-12-29T18:53:51.072Z,4.70
2022-12-29T18:56:18.652Z,4.60
2022-12-29T18:58:46.286Z,4.60
2022-12-29T19:01:20.810Z,4.50
2022-12-29T19:03:48.819Z,4.50
2022-12-29T19:06:16.734Z,4.50
2022-12-29T19:08:44.700Z,4.50
2022-12-29T19:11:12.450Z,4.50
2022-12-29T19:13:40.451Z,4.40
2022-12-29T19:16:14.202Z,4.40
2022-12-29T19:18:47.460Z,4.40
2022-12-29T19:21:20.116Z,4.40
2022-12-29T19:23:48.496Z,4.40
2022-12-29T19:26:36.960Z,4.40
2022-12-29T19:29:07.119Z,4.50
2022-12-29T19:31:35.110Z,4.50
2022-12-29T19:34:03.513Z,4.50
2022-12-29T19:36:31.364Z,4.60
2022-12-29T19:38:59.544Z,4.60
2022-12-29T19:41:27.505Z,4.70
2022-12-29T19:46:24.509Z,4.70
2022-12-29T19:48:53.319Z,4.70
2022-12-29T19:51:21.054Z,4.80
2022-12-29T19:53:48.682Z,4.80
2022-12-29T19:56:16.816Z,4.80
2022-12-29T19:58:47.498Z,4.80
2022-12-29T20:01:22.662Z,4.70
2022-12-29T20:03:51.603Z,4.70
2022-12-29T20:06:19.500Z,4.70
2022-12-29T20:08:47.199Z,4.70
2022-12-29T20:11:17.021Z,4.70
2022-12-29T20:13:45.473Z,4.50
2022-12-29T20:16:15.624Z,4.50
2022-12-29T20:18:44.043Z,4.50
2022-12-29T20:21:17.489Z,4.40
2022-12-29T20:23:45.958Z,4.40
2022-12-29T20:26:22.895Z,4.40
2022-12-29T20:28:51.615Z,4.40
2022-12-29T20:31:20.793Z,3.40
2022-12-29T20:33:48.929Z,4.50
2022-12-29T20:36:25.400Z,4.50
2022-12-29T20:38:55.081Z,4.50
2022-12-29T20:41:23.020Z,4.50
2022-12-29T20:43:53.178Z,4.50
2022-12-29T20:46:24.148Z,4.50
2022-12-29T20:48:54.360Z,4.50
2022-12-29T20:51:22.057Z,4.50
2022-12-29T20:53:49.871Z,4.50
2022-12-29T20:56:20.859Z,4.40
2022-12-29T21:01:37.832Z,4.50
2022-12-29T21:04:06.242Z,4.60
2022-12-29T21:06:34.791Z,4.60
2022-12-29T21:09:03.411Z,4.60
2022-12-29T21:11:31.178Z,4.70
2022-12-29T21:14:01.444Z,4.70
2022-12-29T21:16:29.787Z,4.70
2022-12-29T21:18:57.643Z,4.80
2022-12-29T21:21:26.037Z,4.70
2022-12-29T21:23:53.832Z,4.80
2022-12-29T21:26:23.743Z,4.80
2022-12-29T21:28:51.626Z,4.80
2022-12-29T21:31:26.755Z,4.70
2022-12-29T21:33:55.928Z,4.70
2022-12-29T21:36:23.993Z,4.70
2022-12-29T21:38:51.968Z,4.70
2022-12-29T21:41:20.418Z,4.70
2022-12-29T21:44:07.452Z,4.70
2022-12-29T21:46:37.201Z,4.70
2022-12-29T21:49:06.317Z,4.70
2022-12-29T21:51:54.280Z,4.70
2022-12-29T21:54:44.031Z,4.70
2022-12-29T21:57:17.930Z,4.70
2022-12-29T22:00:07.302Z,4.80
2022-12-29T22:02:55.560Z,4.70
2022-12-29T22:08:28.908Z,4.70
2022-12-29T22:11:15.454Z,4.70
2022-12-29T22:13:45.938Z,4.70
2022-12-29T22:16:13.985Z,4.70
2022-12-29T22:18:41.701Z,4.70
2022-12-29T22:21:10.928Z,4.80
2022-12-29T22:23:38.800Z,4.70
2022-12-29T22:26:09.036Z,4.70
2022-12-29T22:28:40.862Z,4.70
2022-12-29T22:31:24.001Z,4.70
2022-12-29T22:33:51.675Z,4.70
2022-12-29T22:36:19.211Z,4.60
2022-12-29T22:38:46.810Z,4.50
2022-12-29T22:41:14.398Z,4.50
2022-12-29T22:43:42.181Z,4.40
2022-12-29T22:46:09.952Z,4.40
2022-12-29T22:48:38.171Z,4.30
2022-12-29T22:51:06.338Z,4.30
2022-12-29T22:53:34.200Z,4.20
2022-12-29T22:56:10.595Z,4.30
2022-12-29T22:58:46.269Z,4.20
2022-12-29T23:01:16.308Z,4.20
2022-12-29T23:03:44.964Z,4.30
2022-12-29T23:06:14.187Z,4.30
2022-12-29T23:08:42.651Z,4.30
2022-12-29T23:11:12.702Z,4.30
2022-12-29T23:13:41.822Z,4.40
2022-12-29T23:16:09.584Z,4.40
2022-12-29T23:18:37.609Z,4.50
2022-12-29T23:21:05.647Z,4.50
2022-12-29T23:23:51.768Z,4.60
2022-12-29T23:26:28.612Z,4.60
2022-12-29T23:29:00.139Z,4.70
2022-12-29T23:31:29.031Z,4.70
2022-12-29T23:33:56.949Z,4.80
2022-12-29T23:36:24.865Z,4.80
2022-12-29T23:38:52.552Z,4.80
2022-12-29T23:41:20.353Z,4.80
2022-12-29T23:43:48.461Z,4.80
2022-12-29T23:46:25.499Z,4.90
2022-12-29T23:48:53.435Z,4.90
2022-12-29T23:51:21.848Z,4.90
2022-12-29T23:53:49.563Z,4.90
2022-12-29T23:56:22.912Z,4.90
2022-12-29T23:58:50.791Z,5.00
